Kanab, Utah
Current Conditions -  °F | °C
As of 1:55 PM on Tuesday 21 Oct 2014 (Local Time) from KAZC Reporting Station
Broken Clouds Broken Clouds  
Wind Chill: 76°   Ceiling: 6500
Heat Index: 77°   Visibility: 10mi
Dew Point: 43°   Wind: 7mph
Humidity: 31%   Direction: 220°SW
Pressure: 30.02"   Gusts: NA
Location:  37.05°N, 112.53°W
Report Text: KAZC 211955Z AUTO 22006KT 180V240 10SM BKN065 BKN075 25/06 A3002 RMK AO2 T02460063
Loading
Personal Weather Stations






























Interactive Weather Map
Tropical Storm Tracking
New forecast layout! Learn more

10-Day Weather Forecast

Advertisements
Track Severe Weather on mobile